sensor_id;sensor_type;location;lat;lon;timestamp;P1;durP1;ratioP1;P2;durP2;ratioP2
25359;SDS011;13311;51.386;0.016;2022-10-17T00:04:13;9.25;;;4.70;;
25359;SDS011;13311;51.386;0.016;2022-10-17T00:09:14;8.32;;;4.00;;
25359;SDS011;13311;51.386;0.016;2022-10-17T00:14:15;23.88;;;4.53;;
25359;SDS011;13311;51.386;0.016;2022-10-17T00:19:16;10.93;;;3.80;;
25359;SDS011;13311;51.386;0.016;2022-10-17T00:24:16;8.68;;;3.88;;
25359;SDS011;13311;51.386;0.016;2022-10-17T00:29:17;6.15;;;3.47;;
25359;SDS011;13311;51.386;0.016;2022-10-17T00:34:18;7.70;;;3.60;;
25359;SDS011;13311;51.386;0.016;2022-10-17T00:39:18;6.22;;;2.88;;
25359;SDS011;13311;51.386;0.016;2022-10-17T00:49:30;11.52;;;3.45;;
25359;SDS011;13311;51.386;0.016;2022-10-17T00:54:36;8.15;;;3.97;;
25359;SDS011;13311;51.386;0.016;2022-10-17T00:59:44;6.80;;;2.70;;
25359;SDS011;13311;51.386;0.016;2022-10-17T01:04:51;7.10;;;2.40;;
25359;SDS011;13311;51.386;0.016;2022-10-17T01:09:55;8.60;;;2.67;;
25359;SDS011;13311;51.386;0.016;2022-10-17T01:20:49;11.50;;;2.88;;
25359;SDS011;13311;51.386;0.016;2022-10-17T01:31:41;9.10;;;2.88;;
25359;SDS011;13311;51.386;0.016;2022-10-17T01:37:01;9.70;;;3.05;;
25359;SDS011;13311;51.386;0.016;2022-10-17T01:47:29;7.25;;;3.13;;
25359;SDS011;13311;51.386;0.016;2022-10-17T01:52:46;10.20;;;2.67;;
25359;SDS011;13311;51.386;0.016;2022-10-17T01:58:18;12.63;;;3.10;;
25359;SDS011;13311;51.386;0.016;2022-10-17T02:03:29;8.45;;;2.83;;
25359;SDS011;13311;51.386;0.016;2022-10-17T02:08:44;7.72;;;2.30;;
25359;SDS011;13311;51.386;0.016;2022-10-17T02:25:13;7.88;;;2.28;;
25359;SDS011;13311;51.386;0.016;2022-10-17T02:30:40;6.95;;;1.83;;
25359;SDS011;13311;51.386;0.016;2022-10-17T02:36:22;8.50;;;2.72;;
25359;SDS011;13311;51.386;0.016;2022-10-17T02:41:28;5.45;;;1.83;;
25359;SDS011;13311;51.386;0.016;2022-10-17T02:46:31;9.43;;;2.70;;
25359;SDS011;13311;51.386;0.016;2022-10-17T02:51:52;9.73;;;2.83;;
25359;SDS011;13311;51.386;0.016;2022-10-17T02:57:16;6.55;;;2.13;;
25359;SDS011;13311;51.386;0.016;2022-10-17T03:02:37;3.35;;;1.65;;
25359;SDS011;13311;51.386;0.016;2022-10-17T03:07:56;8.82;;;2.75;;
25359;SDS011;13311;51.386;0.016;2022-10-17T03:12:56;4.63;;;1.90;;
25359;SDS011;13311;51.386;0.016;2022-10-17T03:17:57;7.07;;;2.03;;
25359;SDS011;13311;51.386;0.016;2022-10-17T03:22:58;9.00;;;2.15;;
25359;SDS011;13311;51.386;0.016;2022-10-17T03:27:59;7.15;;;2.80;;
25359;SDS011;13311;51.386;0.016;2022-10-17T03:33:00;11.63;;;3.13;;
25359;SDS011;13311;51.386;0.016;2022-10-17T03:38:01;7.68;;;2.15;;
25359;SDS011;13311;51.386;0.016;2022-10-17T03:43:01;6.32;;;2.25;;
25359;SDS011;13311;51.386;0.016;2022-10-17T03:48:02;5.72;;;2.03;;
25359;SDS011;13311;51.386;0.016;2022-10-17T03:53:03;7.53;;;2.33;;
25359;SDS011;13311;51.386;0.016;2022-10-17T03:58:04;10.48;;;2.55;;
25359;SDS011;13311;51.386;0.016;2022-10-17T04:03:05;6.72;;;2.00;;
25359;SDS011;13311;51.386;0.016;2022-10-17T04:08:05;9.60;;;2.25;;
25359;SDS011;13311;51.386;0.016;2022-10-17T04:13:06;8.70;;;2.55;;
25359;SDS011;13311;51.386;0.016;2022-10-17T04:18:07;9.02;;;2.70;;
25359;SDS011;13311;51.386;0.016;2022-10-17T04:23:07;9.15;;;2.88;;
25359;SDS011;13311;51.386;0.016;2022-10-17T04:28:08;6.50;;;1.77;;
25359;SDS011;13311;51.386;0.016;2022-10-17T04:33:09;7.60;;;2.63;;
25359;SDS011;13311;51.386;0.016;2022-10-17T04:38:10;10.13;;;3.47;;
25359;SDS011;13311;51.386;0.016;2022-10-17T04:43:10;12.07;;;2.63;;
25359;SDS011;13311;51.386;0.016;2022-10-17T04:48:11;9.88;;;2.60;;
25359;SDS011;13311;51.386;0.016;2022-10-17T04:53:11;11.68;;;2.67;;
25359;SDS011;13311;51.386;0.016;2022-10-17T04:58:12;10.18;;;2.65;;
25359;SDS011;13311;51.386;0.016;2022-10-17T05:03:13;10.82;;;3.05;;
25359;SDS011;13311;51.386;0.016;2022-10-17T05:08:15;9.85;;;3.08;;
25359;SDS011;13311;51.386;0.016;2022-10-17T05:13:15;11.50;;;2.50;;
25359;SDS011;13311;51.386;0.016;2022-10-17T05:18:16;13.63;;;2.70;;
25359;SDS011;13311;51.386;0.016;2022-10-17T05:23:17;10.07;;;2.60;;
25359;SDS011;13311;51.386;0.016;2022-10-17T05:28:17;11.38;;;3.13;;
25359;SDS011;13311;51.386;0.016;2022-10-17T05:33:18;9.60;;;2.78;;
25359;SDS011;13311;51.386;0.016;2022-10-17T05:38:19;8.85;;;2.55;;
25359;SDS011;13311;51.386;0.016;2022-10-17T05:43:19;6.85;;;2.03;;
25359;SDS011;13311;51.386;0.016;2022-10-17T05:48:20;8.15;;;2.85;;
25359;SDS011;13311;51.386;0.016;2022-10-17T05:53:22;8.30;;;2.63;;
25359;SDS011;13311;51.386;0.016;2022-10-17T05:58:23;9.00;;;2.70;;
25359;SDS011;13311;51.386;0.016;2022-10-17T06:03:24;7.28;;;2.72;;
25359;SDS011;13311;51.386;0.016;2022-10-17T06:08:25;9.40;;;2.60;;
25359;SDS011;13311;51.386;0.016;2022-10-17T06:13:25;6.25;;;2.50;;
25359;SDS011;13311;51.386;0.016;2022-10-17T06:18:27;6.18;;;2.60;;
25359;SDS011;13311;51.386;0.016;2022-10-17T06:23:28;12.60;;;3.42;;
25359;SDS011;13311;51.386;0.016;2022-10-17T06:28:28;7.55;;;2.70;;
25359;SDS011;13311;51.386;0.016;2022-10-17T06:33:29;8.23;;;1.77;;
25359;SDS011;13311;51.386;0.016;2022-10-17T06:38:30;7.22;;;2.20;;
25359;SDS011;13311;51.386;0.016;2022-10-17T06:43:31;6.10;;;3.03;;
25359;SDS011;13311;51.386;0.016;2022-10-17T06:48:32;7.25;;;2.22;;
25359;SDS011;13311;51.386;0.016;2022-10-17T06:53:33;4.78;;;2.03;;
25359;SDS011;13311;51.386;0.016;2022-10-17T06:58:36;7.00;;;1.63;;
25359;SDS011;13311;51.386;0.016;2022-10-17T07:03:39;7.15;;;1.77;;
25359;SDS011;13311;51.386;0.016;2022-10-17T07:08:43;5.93;;;1.63;;
25359;SDS011;13311;51.386;0.016;2022-10-17T07:13:45;5.13;;;1.42;;
25359;SDS011;13311;51.386;0.016;2022-10-17T07:18:47;9.05;;;2.00;;
25359;SDS011;13311;51.386;0.016;2022-10-17T07:23:49;6.88;;;2.13;;
25359;SDS011;13311;51.386;0.016;2022-10-17T07:28:51;5.60;;;2.05;;
25359;SDS011;13311;51.386;0.016;2022-10-17T07:33:54;5.25;;;1.58;;
25359;SDS011;13311;51.386;0.016;2022-10-17T07:38:54;4.03;;;1.40;;
25359;SDS011;13311;51.386;0.016;2022-10-17T07:43:55;5.90;;;2.03;;
25359;SDS011;13311;51.386;0.016;2022-10-17T07:48:56;5.43;;;2.00;;
25359;SDS011;13311;51.386;0.016;2022-10-17T07:53:58;6.03;;;1.33;;
25359;SDS011;13311;51.386;0.016;2022-10-17T07:58:59;6.32;;;1.90;;
25359;SDS011;13311;51.386;0.016;2022-10-17T08:03:59;6.20;;;2.13;;
25359;SDS011;13311;51.386;0.016;2022-10-17T08:09:00;7.78;;;1.95;;
25359;SDS011;13311;51.386;0.016;2022-10-17T08:14:01;5.85;;;1.40;;
25359;SDS011;13311;51.386;0.016;2022-10-17T08:19:02;6.03;;;1.70;;
25359;SDS011;13311;51.386;0.016;2022-10-17T08:24:03;3.40;;;1.35;;
25359;SDS011;13311;51.386;0.016;2022-10-17T08:29:04;7.10;;;2.13;;
25359;SDS011;13311;51.386;0.016;2022-10-17T08:34:05;5.47;;;1.88;;
25359;SDS011;13311;51.386;0.016;2022-10-17T08:39:05;10.10;;;2.30;;
25359;SDS011;13311;51.386;0.016;2022-10-17T08:44:21;21.88;;;3.13;;
25359;SDS011;13311;51.386;0.016;2022-10-17T08:49:44;7.80;;;2.00;;
25359;SDS011;13311;51.386;0.016;2022-10-17T08:54:51;5.45;;;1.80;;
25359;SDS011;13311;51.386;0.016;2022-10-17T08:59:52;10.07;;;2.20;;
25359;SDS011;13311;51.386;0.016;2022-10-17T09:10:26;7.18;;;2.22;;
25359;SDS011;13311;51.386;0.016;2022-10-17T09:15:56;7.05;;;1.92;;
25359;SDS011;13311;51.386;0.016;2022-10-17T09:21:57;10.68;;;2.60;;
25359;SDS011;13311;51.386;0.016;2022-10-17T09:27:14;9.90;;;2.08;;
25359;SDS011;13311;51.386;0.016;2022-10-17T09:32:28;12.68;;;3.13;;
25359;SDS011;13311;51.386;0.016;2022-10-17T09:37:29;9.98;;;3.75;;
25359;SDS011;13311;51.386;0.016;2022-10-17T09:42:31;7.97;;;2.10;;
25359;SDS011;13311;51.386;0.016;2022-10-17T09:47:43;16.27;;;2.72;;
25359;SDS011;13311;51.386;0.016;2022-10-17T09:52:55;11.25;;;2.95;;
25359;SDS011;13311;51.386;0.016;2022-10-17T09:58:08;12.25;;;3.17;;
25359;SDS011;13311;51.386;0.016;2022-10-17T10:08:18;11.25;;;3.20;;
25359;SDS011;13311;51.386;0.016;2022-10-17T10:13:19;11.15;;;3.30;;
25359;SDS011;13311;51.386;0.016;2022-10-17T10:23:35;11.23;;;2.38;;
25359;SDS011;13311;51.386;0.016;2022-10-17T10:28:39;15.95;;;3.40;;
25359;SDS011;13311;51.386;0.016;2022-10-17T10:33:41;10.07;;;2.58;;
25359;SDS011;13311;51.386;0.016;2022-10-17T10:38:49;10.50;;;2.40;;
25359;SDS011;13311;51.386;0.016;2022-10-17T10:43:55;8.45;;;2.75;;
25359;SDS011;13311;51.386;0.016;2022-10-17T10:48:57;10.50;;;2.50;;
25359;SDS011;13311;51.386;0.016;2022-10-17T10:59:23;12.57;;;2.60;;
25359;SDS011;13311;51.386;0.016;2022-10-17T11:10:24;11.98;;;2.53;;
25359;SDS011;13311;51.386;0.016;2022-10-17T11:21:37;12.23;;;3.63;;
25359;SDS011;13311;51.386;0.016;2022-10-17T11:27:01;17.10;;;3.72;;
25359;SDS011;13311;51.386;0.016;2022-10-17T11:32:39;10.50;;;2.28;;
25359;SDS011;13311;51.386;0.016;2022-10-17T11:37:40;7.50;;;2.75;;
25359;SDS011;13311;51.386;0.016;2022-10-17T11:43:05;15.15;;;4.22;;
25359;SDS011;13311;51.386;0.016;2022-10-17T11:48:36;29.60;;;3.40;;
25359;SDS011;13311;51.386;0.016;2022-10-17T11:59:00;8.65;;;2.70;;
25359;SDS011;13311;51.386;0.016;2022-10-17T12:09:54;9.27;;;2.40;;
25359;SDS011;13311;51.386;0.016;2022-10-17T12:20:24;12.20;;;3.53;;
25359;SDS011;13311;51.386;0.016;2022-10-17T12:25:32;14.27;;;3.33;;
25359;SDS011;13311;51.386;0.016;2022-10-17T12:41:54;11.27;;;2.75;;
25359;SDS011;13311;51.386;0.016;2022-10-17T13:02:46;10.88;;;2.67;;
25359;SDS011;13311;51.386;0.016;2022-10-17T13:07:49;13.40;;;3.10;;
25359;SDS011;13311;51.386;0.016;2022-10-17T13:12:53;13.32;;;2.50;;
25359;SDS011;13311;51.386;0.016;2022-10-17T13:18:22;7.82;;;2.42;;
25359;SDS011;13311;51.386;0.016;2022-10-17T13:23:27;6.03;;;2.25;;
25359;SDS011;13311;51.386;0.016;2022-10-17T13:28:32;14.00;;;3.33;;
25359;SDS011;13311;51.386;0.016;2022-10-17T13:33:34;11.48;;;2.50;;
25359;SDS011;13311;51.386;0.016;2022-10-17T13:38:38;11.75;;;3.25;;
25359;SDS011;13311;51.386;0.016;2022-10-17T13:43:38;13.05;;;3.20;;
25359;SDS011;13311;51.386;0.016;2022-10-17T13:48:40;8.77;;;2.33;;
25359;SDS011;13311;51.386;0.016;2022-10-17T13:53:42;14.88;;;3.05;;
25359;SDS011;13311;51.386;0.016;2022-10-17T13:58:47;10.40;;;2.97;;
25359;SDS011;13311;51.386;0.016;2022-10-17T14:03:50;16.10;;;3.00;;
25359;SDS011;13311;51.386;0.016;2022-10-17T14:08:58;10.00;;;2.47;;
25359;SDS011;13311;51.386;0.016;2022-10-17T14:14:03;15.93;;;3.45;;
25359;SDS011;13311;51.386;0.016;2022-10-17T14:19:15;11.00;;;2.47;;
25359;SDS011;13311;51.386;0.016;2022-10-17T14:24:33;8.80;;;2.72;;
25359;SDS011;13311;51.386;0.016;2022-10-17T14:29:50;13.38;;;3.00;;
25359;SDS011;13311;51.386;0.016;2022-10-17T14:34:54;7.70;;;2.75;;
25359;SDS011;13311;51.386;0.016;2022-10-17T14:39:59;13.38;;;3.80;;
25359;SDS011;13311;51.386;0.016;2022-10-17T14:45:07;12.68;;;2.88;;
25359;SDS011;13311;51.386;0.016;2022-10-17T14:55:19;14.75;;;3.38;;
25359;SDS011;13311;51.386;0.016;2022-10-17T15:00:26;11.50;;;2.58;;
25359;SDS011;13311;51.386;0.016;2022-10-17T15:05:27;12.95;;;3.33;;
25359;SDS011;13311;51.386;0.016;2022-10-17T15:10:32;16.65;;;3.05;;
25359;SDS011;13311;51.386;0.016;2022-10-17T15:15:36;10.70;;;2.20;;
25359;SDS011;13311;51.386;0.016;2022-10-17T15:20:38;14.60;;;3.40;;
25359;SDS011;13311;51.386;0.016;2022-10-17T15:25:39;13.85;;;2.95;;
25359;SDS011;13311;51.386;0.016;2022-10-17T15:30:40;11.48;;;2.55;;
25359;SDS011;13311;51.386;0.016;2022-10-17T15:35:41;8.90;;;2.70;;
25359;SDS011;13311;51.386;0.016;2022-10-17T15:40:41;8.15;;;2.20;;
25359;SDS011;13311;51.386;0.016;2022-10-17T15:45:42;13.70;;;2.42;;
25359;SDS011;13311;51.386;0.016;2022-10-17T15:50:43;9.88;;;2.28;;
25359;SDS011;13311;51.386;0.016;2022-10-17T15:55:44;9.90;;;2.13;;
25359;SDS011;13311;51.386;0.016;2022-10-17T16:00:45;12.85;;;2.65;;
25359;SDS011;13311;51.386;0.016;2022-10-17T16:05:46;6.72;;;1.85;;
25359;SDS011;13311;51.386;0.016;2022-10-17T16:10:47;11.80;;;2.20;;
25359;SDS011;13311;51.386;0.016;2022-10-17T16:15:48;6.72;;;1.63;;
25359;SDS011;13311;51.386;0.016;2022-10-17T16:20:49;6.93;;;2.28;;
25359;SDS011;13311;51.386;0.016;2022-10-17T16:25:50;10.75;;;1.63;;
25359;SDS011;13311;51.386;0.016;2022-10-17T16:30:50;6.40;;;2.63;;
25359;SDS011;13311;51.386;0.016;2022-10-17T16:35:51;8.48;;;2.70;;
25359;SDS011;13311;51.386;0.016;2022-10-17T16:40:52;13.32;;;3.00;;
25359;SDS011;13311;51.386;0.016;2022-10-17T16:45:52;11.25;;;2.60;;
25359;SDS011;13311;51.386;0.016;2022-10-17T16:50:53;12.80;;;3.30;;
25359;SDS011;13311;51.386;0.016;2022-10-17T16:55:58;11.65;;;2.60;;
25359;SDS011;13311;51.386;0.016;2022-10-17T17:01:04;9.98;;;2.58;;
25359;SDS011;13311;51.386;0.016;2022-10-17T17:06:28;12.85;;;3.70;;
25359;SDS011;13311;51.386;0.016;2022-10-17T17:11:29;12.52;;;3.30;;
25359;SDS011;13311;51.386;0.016;2022-10-17T17:16:32;13.82;;;3.15;;
25359;SDS011;13311;51.386;0.016;2022-10-17T17:21:34;11.15;;;2.95;;
25359;SDS011;13311;51.386;0.016;2022-10-17T17:26:35;20.13;;;4.03;;
25359;SDS011;13311;51.386;0.016;2022-10-17T17:31:36;12.20;;;3.88;;
25359;SDS011;13311;51.386;0.016;2022-10-17T17:36:38;13.55;;;3.40;;
25359;SDS011;13311;51.386;0.016;2022-10-17T17:41:40;13.48;;;3.40;;
25359;SDS011;13311;51.386;0.016;2022-10-17T17:46:42;16.70;;;3.38;;
25359;SDS011;13311;51.386;0.016;2022-10-17T17:51:43;14.45;;;2.60;;
25359;SDS011;13311;51.386;0.016;2022-10-17T17:56:45;16.23;;;3.83;;
25359;SDS011;13311;51.386;0.016;2022-10-17T18:01:46;11.30;;;3.38;;
25359;SDS011;13311;51.386;0.016;2022-10-17T18:06:46;16.58;;;3.83;;
25359;SDS011;13311;51.386;0.016;2022-10-17T18:11:47;17.85;;;3.92;;
25359;SDS011;13311;51.386;0.016;2022-10-17T18:16:48;18.08;;;3.45;;
25359;SDS011;13311;51.386;0.016;2022-10-17T18:21:49;25.90;;;4.70;;
25359;SDS011;13311;51.386;0.016;2022-10-17T18:26:50;25.60;;;4.82;;
25359;SDS011;13311;51.386;0.016;2022-10-17T18:31:52;19.83;;;4.60;;
25359;SDS011;13311;51.386;0.016;2022-10-17T18:36:53;16.73;;;4.18;;
25359;SDS011;13311;51.386;0.016;2022-10-17T18:41:54;17.63;;;4.68;;
25359;SDS011;13311;51.386;0.016;2022-10-17T18:46:55;21.42;;;4.43;;
25359;SDS011;13311;51.386;0.016;2022-10-17T18:51:58;18.35;;;4.38;;
25359;SDS011;13311;51.386;0.016;2022-10-17T18:56:58;20.17;;;4.55;;
25359;SDS011;13311;51.386;0.016;2022-10-17T19:01:59;23.52;;;4.20;;
25359;SDS011;13311;51.386;0.016;2022-10-17T19:07:00;17.20;;;4.40;;
25359;SDS011;13311;51.386;0.016;2022-10-17T19:12:01;20.38;;;4.53;;
25359;SDS011;13311;51.386;0.016;2022-10-17T19:17:02;16.52;;;4.35;;
25359;SDS011;13311;51.386;0.016;2022-10-17T19:22:02;18.88;;;5.57;;
25359;SDS011;13311;51.386;0.016;2022-10-17T19:27:04;21.40;;;5.47;;
25359;SDS011;13311;51.386;0.016;2022-10-17T19:32:05;24.92;;;5.35;;
25359;SDS011;13311;51.386;0.016;2022-10-17T19:37:09;22.15;;;4.88;;
25359;SDS011;13311;51.386;0.016;2022-10-17T19:42:10;17.75;;;4.65;;
25359;SDS011;13311;51.386;0.016;2022-10-17T19:47:10;25.65;;;5.50;;
25359;SDS011;13311;51.386;0.016;2022-10-17T19:52:11;16.27;;;4.30;;
25359;SDS011;13311;51.386;0.016;2022-10-17T19:57:12;18.15;;;4.88;;
25359;SDS011;13311;51.386;0.016;2022-10-17T20:02:12;21.42;;;4.43;;
25359;SDS011;13311;51.386;0.016;2022-10-17T20:07:13;15.95;;;5.25;;
25359;SDS011;13311;51.386;0.016;2022-10-17T20:12:14;18.05;;;4.65;;
25359;SDS011;13311;51.386;0.016;2022-10-17T20:17:15;17.38;;;4.85;;
25359;SDS011;13311;51.386;0.016;2022-10-17T20:22:15;14.15;;;4.22;;
25359;SDS011;13311;51.386;0.016;2022-10-17T20:27:16;17.55;;;4.43;;
25359;SDS011;13311;51.386;0.016;2022-10-17T20:32:17;16.35;;;4.40;;
25359;SDS011;13311;51.386;0.016;2022-10-17T20:37:17;18.40;;;3.95;;
25359;SDS011;13311;51.386;0.016;2022-10-17T20:42:18;20.33;;;4.57;;
25359;SDS011;13311;51.386;0.016;2022-10-17T20:47:20;17.15;;;4.57;;
25359;SDS011;13311;51.386;0.016;2022-10-17T20:52:21;13.68;;;4.38;;
25359;SDS011;13311;51.386;0.016;2022-10-17T20:57:22;16.42;;;4.38;;
25359;SDS011;13311;51.386;0.016;2022-10-17T21:02:22;22.38;;;4.13;;
25359;SDS011;13311;51.386;0.016;2022-10-17T21:07:23;13.93;;;4.38;;
25359;SDS011;13311;51.386;0.016;2022-10-17T21:12:24;9.60;;;3.85;;
25359;SDS011;13311;51.386;0.016;2022-10-17T21:17:25;17.27;;;4.03;;
25359;SDS011;13311;51.386;0.016;2022-10-17T21:22:25;17.70;;;3.45;;
25359;SDS011;13311;51.386;0.016;2022-10-17T21:27:26;11.95;;;4.07;;
25359;SDS011;13311;51.386;0.016;2022-10-17T21:32:27;19.58;;;4.75;;
25359;SDS011;13311;51.386;0.016;2022-10-17T21:37:28;13.98;;;3.60;;
25359;SDS011;13311;51.386;0.016;2022-10-17T21:42:28;14.00;;;4.18;;
25359;SDS011;13311;51.386;0.016;2022-10-17T21:47:29;14.98;;;4.80;;
25359;SDS011;13311;51.386;0.016;2022-10-17T21:52:30;11.95;;;3.40;;
25359;SDS011;13311;51.386;0.016;2022-10-17T21:57:30;18.75;;;5.07;;
25359;SDS011;13311;51.386;0.016;2022-10-17T22:02:31;24.05;;;4.13;;
25359;SDS011;13311;51.386;0.016;2022-10-17T22:07:32;17.40;;;4.57;;
25359;SDS011;13311;51.386;0.016;2022-10-17T22:12:33;15.48;;;4.57;;
25359;SDS011;13311;51.386;0.016;2022-10-17T22:17:33;13.38;;;4.28;;
25359;SDS011;13311;51.386;0.016;2022-10-17T22:22:34;12.20;;;4.50;;
25359;SDS011;13311;51.386;0.016;2022-10-17T22:27:35;9.30;;;3.83;;
25359;SDS011;13311;51.386;0.016;2022-10-17T22:32:35;12.43;;;3.40;;
25359;SDS011;13311;51.386;0.016;2022-10-17T22:37:36;10.52;;;3.20;;
25359;SDS011;13311;51.386;0.016;2022-10-17T22:42:37;10.65;;;3.60;;
25359;SDS011;13311;51.386;0.016;2022-10-17T22:47:38;15.40;;;4.07;;
25359;SDS011;13311;51.386;0.016;2022-10-17T22:52:38;12.52;;;3.67;;
25359;SDS011;13311;51.386;0.016;2022-10-17T22:57:39;29.80;;;3.67;;
25359;SDS011;13311;51.386;0.016;2022-10-17T23:02:40;16.48;;;3.75;;
25359;SDS011;13311;51.386;0.016;2022-10-17T23:07:41;13.40;;;3.50;;
25359;SDS011;13311;51.386;0.016;2022-10-17T23:12:41;14.25;;;3.55;;
25359;SDS011;13311;51.386;0.016;2022-10-17T23:17:42;11.68;;;3.45;;
25359;SDS011;13311;51.386;0.016;2022-10-17T23:22:43;13.20;;;4.13;;
25359;SDS011;13311;51.386;0.016;2022-10-17T23:27:43;8.30;;;3.15;;
25359;SDS011;13311;51.386;0.016;2022-10-17T23:32:44;9.48;;;2.70;;
25359;SDS011;13311;51.386;0.016;2022-10-17T23:37:45;7.88;;;2.67;;
25359;SDS011;13311;51.386;0.016;2022-10-17T23:42:46;9.07;;;2.88;;
25359;SDS011;13311;51.386;0.016;2022-10-17T23:47:47;11.13;;;2.80;;
25359;SDS011;13311;51.386;0.016;2022-10-17T23:52:47;11.07;;;2.70;;
25359;SDS011;13311;51.386;0.016;2022-10-17T23:57:48;13.25;;;2.78;;
